sensor_id;sensor_type;location;lat;lon;timestamp;P1;durP1;ratioP1;P2;durP2;ratioP2
39050;SDS011;24805;55.852;37.644;2023-12-22T00:01:52;8.52;;;5.57;;
39050;SDS011;24805;55.852;37.644;2023-12-22T00:06:54;7.13;;;4.93;;
39050;SDS011;24805;55.852;37.644;2023-12-22T00:11:56;8.82;;;5.20;;
39050;SDS011;24805;55.852;37.644;2023-12-22T00:16:58;8.60;;;5.35;;
39050;SDS011;24805;55.852;37.644;2023-12-22T00:22:01;7.30;;;4.80;;
39050;SDS011;24805;55.852;37.644;2023-12-22T00:27:05;7.47;;;4.75;;
39050;SDS011;24805;55.852;37.644;2023-12-22T00:32:08;7.75;;;5.38;;
39050;SDS011;24805;55.852;37.644;2023-12-22T00:37:11;7.07;;;4.53;;
39050;SDS011;24805;55.852;37.644;2023-12-22T00:42:14;8.20;;;5.07;;
39050;SDS011;24805;55.852;37.644;2023-12-22T00:47:16;6.88;;;4.20;;
39050;SDS011;24805;55.852;37.644;2023-12-22T00:52:18;8.05;;;5.45;;
39050;SDS011;24805;55.852;37.644;2023-12-22T00:57:21;7.43;;;4.47;;
39050;SDS011;24805;55.852;37.644;2023-12-22T01:02:23;8.77;;;5.60;;
39050;SDS011;24805;55.852;37.644;2023-12-22T01:07:25;11.35;;;5.45;;
39050;SDS011;24805;55.852;37.644;2023-12-22T01:12:27;9.07;;;4.72;;
39050;SDS011;24805;55.852;37.644;2023-12-22T01:17:30;10.52;;;6.10;;
39050;SDS011;24805;55.852;37.644;2023-12-22T01:22:33;8.68;;;5.47;;
39050;SDS011;24805;55.852;37.644;2023-12-22T01:27:39;11.90;;;5.38;;
39050;SDS011;24805;55.852;37.644;2023-12-22T01:32:42;10.57;;;4.95;;
39050;SDS011;24805;55.852;37.644;2023-12-22T01:37:44;23.17;;;12.88;;
39050;SDS011;24805;55.852;37.644;2023-12-22T01:42:47;28.45;;;14.05;;
39050;SDS011;24805;55.852;37.644;2023-12-22T01:47:49;23.38;;;13.15;;
39050;SDS011;24805;55.852;37.644;2023-12-22T01:52:52;24.92;;;13.25;;
39050;SDS011;24805;55.852;37.644;2023-12-22T01:57:55;21.63;;;11.30;;
39050;SDS011;24805;55.852;37.644;2023-12-22T02:02:58;15.43;;;8.02;;
39050;SDS011;24805;55.852;37.644;2023-12-22T02:08:00;12.23;;;6.95;;
39050;SDS011;24805;55.852;37.644;2023-12-22T02:13:03;11.27;;;6.35;;
39050;SDS011;24805;55.852;37.644;2023-12-22T02:18:09;10.68;;;5.05;;
39050;SDS011;24805;55.852;37.644;2023-12-22T02:33:24;9.68;;;5.18;;
39050;SDS011;24805;55.852;37.644;2023-12-22T02:38:31;11.23;;;6.60;;
39050;SDS011;24805;55.852;37.644;2023-12-22T02:43:35;7.47;;;5.75;;
39050;SDS011;24805;55.852;37.644;2023-12-22T02:48:37;8.95;;;4.97;;
39050;SDS011;24805;55.852;37.644;2023-12-22T02:53:39;7.68;;;4.95;;
39050;SDS011;24805;55.852;37.644;2023-12-22T02:58:42;7.82;;;5.40;;
39050;SDS011;24805;55.852;37.644;2023-12-22T03:03:44;9.35;;;4.82;;
39050;SDS011;24805;55.852;37.644;2023-12-22T03:08:46;8.15;;;5.10;;
39050;SDS011;24805;55.852;37.644;2023-12-22T03:13:48;8.90;;;4.30;;
39050;SDS011;24805;55.852;37.644;2023-12-22T03:18:51;8.00;;;5.28;;
39050;SDS011;24805;55.852;37.644;2023-12-22T03:23:53;7.95;;;5.05;;
39050;SDS011;24805;55.852;37.644;2023-12-22T03:28:55;10.77;;;5.32;;
39050;SDS011;24805;55.852;37.644;2023-12-22T03:33:57;7.82;;;4.72;;
39050;SDS011;24805;55.852;37.644;2023-12-22T03:39:00;8.45;;;5.22;;
39050;SDS011;24805;55.852;37.644;2023-12-22T03:44:04;7.07;;;5.28;;
39050;SDS011;24805;55.852;37.644;2023-12-22T03:49:06;9.02;;;5.88;;
39050;SDS011;24805;55.852;37.644;2023-12-22T03:54:08;9.57;;;5.18;;
39050;SDS011;24805;55.852;37.644;2023-12-22T03:59:11;8.95;;;5.72;;
39050;SDS011;24805;55.852;37.644;2023-12-22T04:04:15;9.70;;;5.75;;
39050;SDS011;24805;55.852;37.644;2023-12-22T04:09:17;7.88;;;5.82;;
39050;SDS011;24805;55.852;37.644;2023-12-22T04:14:19;8.15;;;5.45;;
39050;SDS011;24805;55.852;37.644;2023-12-22T04:19:21;8.95;;;6.57;;
39050;SDS011;24805;55.852;37.644;2023-12-22T04:24:24;8.13;;;5.97;;
39050;SDS011;24805;55.852;37.644;2023-12-22T04:29:26;10.73;;;6.40;;
39050;SDS011;24805;55.852;37.644;2023-12-22T04:34:28;8.82;;;6.40;;
39050;SDS011;24805;55.852;37.644;2023-12-22T04:39:31;9.68;;;6.43;;
39050;SDS011;24805;55.852;37.644;2023-12-22T04:44:33;12.63;;;6.63;;
39050;SDS011;24805;55.852;37.644;2023-12-22T04:49:35;10.27;;;6.05;;
39050;SDS011;24805;55.852;37.644;2023-12-22T04:54:38;8.23;;;5.22;;
39050;SDS011;24805;55.852;37.644;2023-12-22T04:59:40;10.70;;;6.20;;
39050;SDS011;24805;55.852;37.644;2023-12-22T05:04:42;12.40;;;6.63;;
39050;SDS011;24805;55.852;37.644;2023-12-22T05:09:45;10.90;;;6.30;;
39050;SDS011;24805;55.852;37.644;2023-12-22T05:14:47;11.88;;;6.97;;
39050;SDS011;24805;55.852;37.644;2023-12-22T05:19:49;11.60;;;7.45;;
39050;SDS011;24805;55.852;37.644;2023-12-22T05:24:52;10.63;;;6.78;;
39050;SDS011;24805;55.852;37.644;2023-12-22T05:29:54;15.73;;;8.10;;
39050;SDS011;24805;55.852;37.644;2023-12-22T05:34:56;11.35;;;7.05;;
39050;SDS011;24805;55.852;37.644;2023-12-22T05:39:59;13.43;;;8.50;;
39050;SDS011;24805;55.852;37.644;2023-12-22T05:45:01;11.55;;;8.32;;
39050;SDS011;24805;55.852;37.644;2023-12-22T05:50:04;13.57;;;8.32;;
39050;SDS011;24805;55.852;37.644;2023-12-22T05:55:07;14.50;;;9.02;;
39050;SDS011;24805;55.852;37.644;2023-12-22T06:00:11;15.93;;;10.00;;
39050;SDS011;24805;55.852;37.644;2023-12-22T06:05:14;15.60;;;9.00;;
39050;SDS011;24805;55.852;37.644;2023-12-22T06:10:16;19.30;;;9.57;;
39050;SDS011;24805;55.852;37.644;2023-12-22T06:15:19;14.82;;;9.40;;
39050;SDS011;24805;55.852;37.644;2023-12-22T06:20:21;16.90;;;10.45;;
39050;SDS011;24805;55.852;37.644;2023-12-22T06:25:23;15.73;;;9.82;;
39050;SDS011;24805;55.852;37.644;2023-12-22T06:30:26;18.23;;;11.55;;
39050;SDS011;24805;55.852;37.644;2023-12-22T06:35:28;17.25;;;11.10;;
39050;SDS011;24805;55.852;37.644;2023-12-22T06:40:31;15.88;;;10.05;;
39050;SDS011;24805;55.852;37.644;2023-12-22T06:45:33;14.23;;;9.30;;
39050;SDS011;24805;55.852;37.644;2023-12-22T06:50:35;13.68;;;10.20;;
39050;SDS011;24805;55.852;37.644;2023-12-22T06:55:39;17.15;;;11.32;;
39050;SDS011;24805;55.852;37.644;2023-12-22T07:00:41;13.43;;;8.45;;
39050;SDS011;24805;55.852;37.644;2023-12-22T07:05:44;16.15;;;11.23;;
39050;SDS011;24805;55.852;37.644;2023-12-22T07:10:46;14.27;;;8.52;;
39050;SDS011;24805;55.852;37.644;2023-12-22T07:15:49;14.93;;;10.68;;
39050;SDS011;24805;55.852;37.644;2023-12-22T07:20:53;17.23;;;10.25;;
39050;SDS011;24805;55.852;37.644;2023-12-22T07:25:55;15.02;;;10.23;;
39050;SDS011;24805;55.852;37.644;2023-12-22T07:30:57;13.82;;;9.65;;
39050;SDS011;24805;55.852;37.644;2023-12-22T07:36:00;15.18;;;10.15;;
39050;SDS011;24805;55.852;37.644;2023-12-22T07:41:03;13.38;;;8.13;;
39050;SDS011;24805;55.852;37.644;2023-12-22T07:46:05;13.43;;;9.73;;
39050;SDS011;24805;55.852;37.644;2023-12-22T07:51:08;16.13;;;10.07;;
39050;SDS011;24805;55.852;37.644;2023-12-22T07:56:11;12.70;;;7.70;;
39050;SDS011;24805;55.852;37.644;2023-12-22T08:01:13;11.13;;;8.48;;
39050;SDS011;24805;55.852;37.644;2023-12-22T08:06:17;13.55;;;9.70;;
39050;SDS011;24805;55.852;37.644;2023-12-22T08:11:19;14.10;;;9.05;;
39050;SDS011;24805;55.852;37.644;2023-12-22T08:16:22;14.93;;;7.93;;
39050;SDS011;24805;55.852;37.644;2023-12-22T08:21:24;11.65;;;7.43;;
39050;SDS011;24805;55.852;37.644;2023-12-22T08:26:43;10.48;;;7.10;;
39050;SDS011;24805;55.852;37.644;2023-12-22T08:31:46;13.43;;;7.68;;
39050;SDS011;24805;55.852;37.644;2023-12-22T08:36:48;10.70;;;7.32;;
39050;SDS011;24805;55.852;37.644;2023-12-22T08:41:51;7.60;;;4.90;;
39050;SDS011;24805;55.852;37.644;2023-12-22T08:46:54;10.48;;;7.00;;
39050;SDS011;24805;55.852;37.644;2023-12-22T08:51:56;10.05;;;6.88;;
39050;SDS011;24805;55.852;37.644;2023-12-22T08:56:58;11.02;;;7.75;;
39050;SDS011;24805;55.852;37.644;2023-12-22T09:02:00;15.02;;;8.48;;
39050;SDS011;24805;55.852;37.644;2023-12-22T09:07:03;12.23;;;7.82;;
39050;SDS011;24805;55.852;37.644;2023-12-22T09:12:05;17.48;;;10.75;;
39050;SDS011;24805;55.852;37.644;2023-12-22T09:17:08;20.60;;;12.88;;
39050;SDS011;24805;55.852;37.644;2023-12-22T09:22:10;18.60;;;11.45;;
39050;SDS011;24805;55.852;37.644;2023-12-22T09:27:12;18.52;;;11.15;;
39050;SDS011;24805;55.852;37.644;2023-12-22T09:32:14;17.38;;;11.90;;
39050;SDS011;24805;55.852;37.644;2023-12-22T09:37:16;16.60;;;11.35;;
39050;SDS011;24805;55.852;37.644;2023-12-22T09:42:19;15.25;;;10.68;;
39050;SDS011;24805;55.852;37.644;2023-12-22T09:47:23;16.40;;;11.52;;
39050;SDS011;24805;55.852;37.644;2023-12-22T09:52:27;15.38;;;11.15;;
39050;SDS011;24805;55.852;37.644;2023-12-22T09:57:32;14.40;;;10.38;;
39050;SDS011;24805;55.852;37.644;2023-12-22T10:02:36;15.07;;;10.70;;
39050;SDS011;24805;55.852;37.644;2023-12-22T10:07:40;15.65;;;9.25;;
39050;SDS011;24805;55.852;37.644;2023-12-22T10:12:46;14.60;;;9.48;;
39050;SDS011;24805;55.852;37.644;2023-12-22T10:17:48;14.30;;;9.15;;
39050;SDS011;24805;55.852;37.644;2023-12-22T10:22:51;13.48;;;9.23;;
39050;SDS011;24805;55.852;37.644;2023-12-22T10:27:53;11.80;;;7.75;;
39050;SDS011;24805;55.852;37.644;2023-12-22T10:32:56;13.32;;;8.43;;
39050;SDS011;24805;55.852;37.644;2023-12-22T10:37:58;14.73;;;9.63;;
39050;SDS011;24805;55.852;37.644;2023-12-22T10:43:04;11.23;;;7.82;;
39050;SDS011;24805;55.852;37.644;2023-12-22T10:48:07;11.68;;;8.00;;
39050;SDS011;24805;55.852;37.644;2023-12-22T10:53:12;11.73;;;7.38;;
39050;SDS011;24805;55.852;37.644;2023-12-22T10:58:19;11.82;;;8.73;;
39050;SDS011;24805;55.852;37.644;2023-12-22T11:03:22;11.35;;;7.38;;
39050;SDS011;24805;55.852;37.644;2023-12-22T11:08:28;10.40;;;7.35;;
39050;SDS011;24805;55.852;37.644;2023-12-22T11:13:31;10.45;;;7.47;;
39050;SDS011;24805;55.852;37.644;2023-12-22T11:18:35;10.48;;;7.63;;
39050;SDS011;24805;55.852;37.644;2023-12-22T11:23:38;8.27;;;4.75;;
39050;SDS011;24805;55.852;37.644;2023-12-22T11:28:42;11.82;;;8.13;;
39050;SDS011;24805;55.852;37.644;2023-12-22T11:33:48;10.55;;;6.93;;
39050;SDS011;24805;55.852;37.644;2023-12-22T11:39:05;11.00;;;6.75;;
39050;SDS011;24805;55.852;37.644;2023-12-22T11:44:07;14.77;;;7.43;;
39050;SDS011;24805;55.852;37.644;2023-12-22T11:49:11;10.75;;;6.70;;
39050;SDS011;24805;55.852;37.644;2023-12-22T11:54:43;10.25;;;6.80;;
39050;SDS011;24805;55.852;37.644;2023-12-22T12:05:21;7.97;;;5.57;;
39050;SDS011;24805;55.852;37.644;2023-12-22T12:15:39;9.80;;;6.53;;
39050;SDS011;24805;55.852;37.644;2023-12-22T12:20:43;10.10;;;6.30;;
39050;SDS011;24805;55.852;37.644;2023-12-22T12:25:46;13.30;;;7.82;;
39050;SDS011;24805;55.852;37.644;2023-12-22T12:30:49;8.23;;;3.30;;
39050;SDS011;24805;55.852;37.644;2023-12-22T12:36:03;10.20;;;6.72;;
39050;SDS011;24805;55.852;37.644;2023-12-22T12:41:09;11.25;;;6.47;;
39050;SDS011;24805;55.852;37.644;2023-12-22T12:46:13;8.48;;;6.07;;
39050;SDS011;24805;55.852;37.644;2023-12-22T12:51:16;6.97;;;4.32;;
39050;SDS011;24805;55.852;37.644;2023-12-22T12:56:18;9.05;;;5.75;;
39050;SDS011;24805;55.852;37.644;2023-12-22T13:01:20;8.57;;;5.28;;
39050;SDS011;24805;55.852;37.644;2023-12-22T13:06:30;9.18;;;5.82;;
39050;SDS011;24805;55.852;37.644;2023-12-22T13:11:32;10.50;;;6.45;;
39050;SDS011;24805;55.852;37.644;2023-12-22T13:16:37;8.68;;;4.60;;
39050;SDS011;24805;55.852;37.644;2023-12-22T13:21:41;9.32;;;5.20;;
39050;SDS011;24805;55.852;37.644;2023-12-22T13:26:44;12.25;;;6.53;;
39050;SDS011;24805;55.852;37.644;2023-12-22T13:31:47;10.18;;;6.43;;
39050;SDS011;24805;55.852;37.644;2023-12-22T13:36:49;10.98;;;6.20;;
39050;SDS011;24805;55.852;37.644;2023-12-22T13:41:51;10.23;;;6.53;;
39050;SDS011;24805;55.852;37.644;2023-12-22T13:46:54;10.55;;;6.85;;
39050;SDS011;24805;55.852;37.644;2023-12-22T13:51:56;10.02;;;6.95;;
39050;SDS011;24805;55.852;37.644;2023-12-22T13:57:01;12.30;;;7.55;;
39050;SDS011;24805;55.852;37.644;2023-12-22T14:02:03;8.55;;;5.97;;
39050;SDS011;24805;55.852;37.644;2023-12-22T14:07:06;9.80;;;5.20;;
39050;SDS011;24805;55.852;37.644;2023-12-22T14:12:08;11.30;;;7.00;;
39050;SDS011;24805;55.852;37.644;2023-12-22T14:17:18;10.63;;;6.88;;
39050;SDS011;24805;55.852;37.644;2023-12-22T14:22:21;13.73;;;9.32;;
39050;SDS011;24805;55.852;37.644;2023-12-22T14:27:24;12.30;;;7.45;;
39050;SDS011;24805;55.852;37.644;2023-12-22T14:32:26;16.15;;;9.10;;
39050;SDS011;24805;55.852;37.644;2023-12-22T14:37:28;8.25;;;4.78;;
39050;SDS011;24805;55.852;37.644;2023-12-22T14:42:31;15.50;;;8.52;;
39050;SDS011;24805;55.852;37.644;2023-12-22T14:47:34;20.73;;;10.48;;
39050;SDS011;24805;55.852;37.644;2023-12-22T14:52:37;20.92;;;11.70;;
39050;SDS011;24805;55.852;37.644;2023-12-22T14:57:39;18.52;;;10.20;;
39050;SDS011;24805;55.852;37.644;2023-12-22T15:02:42;15.73;;;8.30;;
39050;SDS011;24805;55.852;37.644;2023-12-22T15:07:44;15.20;;;10.32;;
39050;SDS011;24805;55.852;37.644;2023-12-22T15:12:47;17.45;;;10.25;;
39050;SDS011;24805;55.852;37.644;2023-12-22T15:17:51;16.15;;;9.07;;
39050;SDS011;24805;55.852;37.644;2023-12-22T15:22:53;15.25;;;8.88;;
39050;SDS011;24805;55.852;37.644;2023-12-22T15:27:56;17.60;;;9.18;;
39050;SDS011;24805;55.852;37.644;2023-12-22T15:32:58;17.73;;;10.80;;
39050;SDS011;24805;55.852;37.644;2023-12-22T15:38:00;16.23;;;9.88;;
39050;SDS011;24805;55.852;37.644;2023-12-22T15:43:02;14.10;;;9.40;;
39050;SDS011;24805;55.852;37.644;2023-12-22T15:48:05;17.98;;;10.65;;
39050;SDS011;24805;55.852;37.644;2023-12-22T15:53:08;18.63;;;9.73;;
39050;SDS011;24805;55.852;37.644;2023-12-22T15:58:11;22.58;;;12.15;;
39050;SDS011;24805;55.852;37.644;2023-12-22T16:03:13;17.50;;;11.18;;
39050;SDS011;24805;55.852;37.644;2023-12-22T16:08:16;18.23;;;10.68;;
39050;SDS011;24805;55.852;37.644;2023-12-22T16:13:18;19.50;;;11.50;;
39050;SDS011;24805;55.852;37.644;2023-12-22T16:18:20;18.55;;;11.50;;
39050;SDS011;24805;55.852;37.644;2023-12-22T16:23:23;19.25;;;11.25;;
39050;SDS011;24805;55.852;37.644;2023-12-22T16:28:44;20.45;;;12.07;;
39050;SDS011;24805;55.852;37.644;2023-12-22T16:33:46;22.55;;;12.88;;
39050;SDS011;24805;55.852;37.644;2023-12-22T16:38:48;18.75;;;11.60;;
39050;SDS011;24805;55.852;37.644;2023-12-22T16:43:51;23.88;;;13.15;;
39050;SDS011;24805;55.852;37.644;2023-12-22T16:48:55;21.17;;;12.07;;
39050;SDS011;24805;55.852;37.644;2023-12-22T16:53:57;23.17;;;13.68;;
39050;SDS011;24805;55.852;37.644;2023-12-22T16:59:01;25.35;;;14.48;;
39050;SDS011;24805;55.852;37.644;2023-12-22T17:04:03;22.67;;;13.73;;
39050;SDS011;24805;55.852;37.644;2023-12-22T17:09:06;23.67;;;14.43;;
39050;SDS011;24805;55.852;37.644;2023-12-22T17:14:09;22.00;;;11.00;;
39050;SDS011;24805;55.852;37.644;2023-12-22T17:19:12;27.40;;;14.45;;
39050;SDS011;24805;55.852;37.644;2023-12-22T17:24:15;22.25;;;12.82;;
39050;SDS011;24805;55.852;37.644;2023-12-22T17:29:17;22.98;;;13.30;;
39050;SDS011;24805;55.852;37.644;2023-12-22T17:34:19;16.90;;;9.65;;
39050;SDS011;24805;55.852;37.644;2023-12-22T17:39:21;20.45;;;12.38;;
39050;SDS011;24805;55.852;37.644;2023-12-22T17:44:24;25.42;;;14.80;;
39050;SDS011;24805;55.852;37.644;2023-12-22T17:49:26;22.67;;;14.10;;
39050;SDS011;24805;55.852;37.644;2023-12-22T17:54:28;19.92;;;12.23;;
39050;SDS011;24805;55.852;37.644;2023-12-22T17:59:30;23.35;;;11.82;;
39050;SDS011;24805;55.852;37.644;2023-12-22T18:04:33;27.05;;;13.10;;
39050;SDS011;24805;55.852;37.644;2023-12-22T18:09:37;24.55;;;14.48;;
39050;SDS011;24805;55.852;37.644;2023-12-22T18:14:41;27.80;;;15.80;;
39050;SDS011;24805;55.852;37.644;2023-12-22T18:19:44;27.75;;;14.90;;
39050;SDS011;24805;55.852;37.644;2023-12-22T18:24:46;34.50;;;16.15;;
39050;SDS011;24805;55.852;37.644;2023-12-22T18:29:48;24.02;;;13.32;;
39050;SDS011;24805;55.852;37.644;2023-12-22T18:34:50;21.33;;;13.13;;
39050;SDS011;24805;55.852;37.644;2023-12-22T18:39:53;28.45;;;14.65;;
39050;SDS011;24805;55.852;37.644;2023-12-22T18:44:55;27.95;;;15.95;;
39050;SDS011;24805;55.852;37.644;2023-12-22T18:49:59;30.85;;;17.02;;
39050;SDS011;24805;55.852;37.644;2023-12-22T18:55:02;25.63;;;15.85;;
39050;SDS011;24805;55.852;37.644;2023-12-22T19:00:05;26.15;;;14.27;;
39050;SDS011;24805;55.852;37.644;2023-12-22T19:05:09;31.30;;;17.30;;
39050;SDS011;24805;55.852;37.644;2023-12-22T19:10:11;32.97;;;18.08;;
39050;SDS011;24805;55.852;37.644;2023-12-22T19:15:14;27.90;;;15.52;;
39050;SDS011;24805;55.852;37.644;2023-12-22T19:20:18;26.50;;;14.48;;
39050;SDS011;24805;55.852;37.644;2023-12-22T19:25:20;35.63;;;17.95;;
39050;SDS011;24805;55.852;37.644;2023-12-22T19:30:22;28.63;;;15.77;;
39050;SDS011;24805;55.852;37.644;2023-12-22T19:35:24;27.23;;;15.65;;
39050;SDS011;24805;55.852;37.644;2023-12-22T19:40:28;30.50;;;16.50;;
39050;SDS011;24805;55.852;37.644;2023-12-22T19:45:30;29.10;;;16.02;;
39050;SDS011;24805;55.852;37.644;2023-12-22T19:50:34;32.42;;;17.55;;
39050;SDS011;24805;55.852;37.644;2023-12-22T19:55:37;31.65;;;16.88;;
39050;SDS011;24805;55.852;37.644;2023-12-22T20:00:39;31.33;;;18.15;;
39050;SDS011;24805;55.852;37.644;2023-12-22T20:05:41;34.63;;;19.15;;
39050;SDS011;24805;55.852;37.644;2023-12-22T20:10:44;27.95;;;14.60;;
39050;SDS011;24805;55.852;37.644;2023-12-22T20:15:47;34.58;;;19.13;;
39050;SDS011;24805;55.852;37.644;2023-12-22T20:20:50;26.23;;;14.68;;
39050;SDS011;24805;55.852;37.644;2023-12-22T20:25:53;29.98;;;16.58;;
39050;SDS011;24805;55.852;37.644;2023-12-22T20:30:55;29.08;;;16.48;;
39050;SDS011;24805;55.852;37.644;2023-12-22T20:35:57;24.40;;;13.55;;
39050;SDS011;24805;55.852;37.644;2023-12-22T20:40:59;31.77;;;17.52;;
39050;SDS011;24805;55.852;37.644;2023-12-22T20:46:02;26.08;;;13.80;;
39050;SDS011;24805;55.852;37.644;2023-12-22T20:51:06;25.00;;;15.52;;
39050;SDS011;24805;55.852;37.644;2023-12-22T20:56:20;25.52;;;13.88;;
39050;SDS011;24805;55.852;37.644;2023-12-22T21:01:25;26.25;;;14.52;;
39050;SDS011;24805;55.852;37.644;2023-12-22T21:06:30;25.92;;;13.00;;
39050;SDS011;24805;55.852;37.644;2023-12-22T21:11:32;21.05;;;12.95;;
39050;SDS011;24805;55.852;37.644;2023-12-22T21:16:36;24.02;;;13.35;;
39050;SDS011;24805;55.852;37.644;2023-12-22T21:21:44;21.80;;;13.27;;
39050;SDS011;24805;55.852;37.644;2023-12-22T21:26:47;23.10;;;14.07;;
39050;SDS011;24805;55.852;37.644;2023-12-22T21:31:49;22.38;;;13.77;;
39050;SDS011;24805;55.852;37.644;2023-12-22T21:36:51;15.77;;;8.43;;
39050;SDS011;24805;55.852;37.644;2023-12-22T21:41:53;22.67;;;13.30;;
39050;SDS011;24805;55.852;37.644;2023-12-22T21:46:55;21.17;;;12.07;;
39050;SDS011;24805;55.852;37.644;2023-12-22T21:51:58;20.23;;;11.50;;
39050;SDS011;24805;55.852;37.644;2023-12-22T21:57:00;20.55;;;11.38;;
39050;SDS011;24805;55.852;37.644;2023-12-22T22:02:03;20.63;;;13.18;;
39050;SDS011;24805;55.852;37.644;2023-12-22T22:07:05;17.23;;;11.60;;
39050;SDS011;24805;55.852;37.644;2023-12-22T22:12:07;19.70;;;11.93;;
39050;SDS011;24805;55.852;37.644;2023-12-22T22:17:09;22.17;;;13.13;;
39050;SDS011;24805;55.852;37.644;2023-12-22T22:22:12;22.05;;;12.68;;
39050;SDS011;24805;55.852;37.644;2023-12-22T22:27:14;18.88;;;11.20;;
39050;SDS011;24805;55.852;37.644;2023-12-22T22:32:17;22.25;;;12.82;;
39050;SDS011;24805;55.852;37.644;2023-12-22T22:37:20;21.67;;;12.98;;
39050;SDS011;24805;55.852;37.644;2023-12-22T22:42:22;20.70;;;12.38;;
39050;SDS011;24805;55.852;37.644;2023-12-22T22:47:24;20.27;;;12.23;;
39050;SDS011;24805;55.852;37.644;2023-12-22T22:52:26;19.75;;;11.57;;
39050;SDS011;24805;55.852;37.644;2023-12-22T22:57:29;20.55;;;12.40;;
39050;SDS011;24805;55.852;37.644;2023-12-22T23:02:32;19.15;;;12.55;;
39050;SDS011;24805;55.852;37.644;2023-12-22T23:07:35;20.30;;;12.60;;
39050;SDS011;24805;55.852;37.644;2023-12-22T23:12:37;18.77;;;12.35;;
39050;SDS011;24805;55.852;37.644;2023-12-22T23:17:39;16.50;;;9.77;;
39050;SDS011;24805;55.852;37.644;2023-12-22T23:22:42;23.52;;;14.82;;
39050;SDS011;24805;55.852;37.644;2023-12-22T23:27:46;19.35;;;12.88;;
39050;SDS011;24805;55.852;37.644;2023-12-22T23:32:48;18.35;;;12.30;;
39050;SDS011;24805;55.852;37.644;2023-12-22T23:37:50;19.75;;;11.90;;
39050;SDS011;24805;55.852;37.644;2023-12-22T23:42:53;22.65;;;13.55;;
39050;SDS011;24805;55.852;37.644;2023-12-22T23:47:55;21.20;;;13.68;;
39050;SDS011;24805;55.852;37.644;2023-12-22T23:52:58;20.65;;;12.75;;
39050;SDS011;24805;55.852;37.644;2023-12-22T23:58:00;21.63;;;12.15;;
